Merna, Nebraska
Current Conditions -  °F | °C
As of 10:31 PM on Wednesday 28 Jan 2015 (Local Time) from KBBW Reporting Station
Broken Clouds Broken Clouds  
Wind Chill: 32°   Ceiling: 2800
Heat Index: 44°   Visibility: 10mi
Dew Point: 33°   Wind: 41mph
Humidity: 65%   Direction: 350°N
Pressure: 30.07"   Gusts: 49mph
Location:  41.48°N, 99.76°W
Report Text: KBBW 290431Z AUTO 35036G43KT 10SM BKN028 07/01 A3007 RMK AO2 PK WND 35043/0430 T00670006
Loading
Personal Weather Stations






























Interactive Weather Map New forecast layout! Learn more

10-Day Weather Forecast

Advertisements
Track Severe Weather on mobile